createdAt,value
2022-09-05T00:00:12.218Z,0.66
2022-09-05T00:01:14.310Z,0.76
2022-09-05T00:02:08.981Z,0.76
2022-09-05T00:03:12.891Z,0.53
2022-09-05T00:04:27.731Z,0.53
2022-09-05T00:05:09.610Z,1.15
2022-09-05T00:06:18.471Z,1.11
2022-09-05T00:07:04.698Z,1.11
2022-09-05T00:08:14.524Z,0.58
2022-09-05T00:09:11.709Z,0.58
2022-09-05T00:10:07.823Z,0.74
2022-09-05T00:11:44.526Z,0.73
2022-09-05T00:12:09.814Z,0.64
2022-09-05T00:13:14.746Z,0.64
2022-09-05T00:14:14.343Z,0.6
2022-09-05T00:15:19.497Z,0.6
2022-09-05T00:16:06.698Z,0.6
2022-09-05T00:17:16.721Z,0.58
2022-09-05T00:24:41.574Z,0.45
2022-09-05T00:24:41.946Z,0.55
2022-09-05T00:24:49.930Z,0.43
2022-09-05T00:24:49.937Z,0.55
2022-09-05T00:24:49.957Z,0.44
2022-09-05T00:24:49.961Z,0.44
2022-09-05T00:24:50.006Z,0.49
2022-09-05T00:26:07.128Z,0.87
2022-09-05T00:27:16.425Z,0.68
2022-09-05T00:28:28.856Z,0.68
2022-09-05T00:29:17.607Z,0.68
2022-09-05T00:31:56.298Z,0.68
2022-09-05T00:31:58.759Z,0.65
2022-09-05T00:32:14.065Z,0.65
2022-09-05T00:33:19.435Z,0.44
2022-09-05T00:34:14.862Z,0.42
2022-09-05T00:35:16.922Z,0.45
2022-09-05T00:36:05.071Z,0.45
2022-09-05T00:37:05.597Z,0.66
2022-09-05T00:38:17.032Z,0.74
2022-09-05T00:39:12.368Z,0.74
2022-09-05T00:40:20.676Z,0.56
2022-09-05T00:41:14.216Z,0.56
2022-09-05T00:42:15.372Z,0.49
2022-09-05T00:43:14.391Z,0.49
2022-09-05T00:44:18.503Z,0.98
2022-09-05T00:45:06.431Z,0.98
2022-09-05T00:46:14.732Z,0.63
2022-09-05T00:47:07.031Z,0.63
2022-09-05T00:48:15.218Z,0.4
2022-09-05T00:49:10.593Z,0.51
2022-09-05T00:50:15.285Z,0.49
2022-09-05T00:51:07.674Z,0.49
2022-09-05T00:52:15.884Z,0.56
2022-09-05T00:53:13.965Z,0.56
2022-09-05T00:54:17.795Z,0.36
2022-09-05T00:55:09.800Z,0.36
2022-09-05T00:56:07.530Z,0.72
2022-09-05T00:57:18.068Z,0.46
2022-09-05T00:58:15.423Z,0.46
2022-09-05T00:59:12.989Z,0.78
2022-09-05T01:00:18.046Z,0.78
2022-09-05T01:01:22.952Z,0.86
2022-09-05T01:02:14.071Z,0.99
2022-09-05T01:03:10.316Z,0.59
2022-09-05T01:04:16.743Z,0.58
2022-09-05T01:05:08.363Z,0.58
2022-09-05T01:06:15.275Z,0.72
2022-09-05T01:07:10.219Z,0.72
2022-09-05T01:08:20.970Z,0.54
2022-09-05T01:09:10.002Z,0.54
2022-09-05T01:10:07.753Z,0.45
2022-09-05T01:11:13.226Z,0.53
2022-09-05T01:12:12.355Z,0.53
2022-09-05T01:13:13.343Z,0.71
2022-09-05T01:14:12.821Z,0.78
2022-09-05T01:15:17.507Z,0.78
2022-09-05T01:16:07.211Z,0.78
2022-09-05T01:17:16.845Z,0.39
2022-09-05T01:18:07.249Z,0.39
2022-09-05T01:19:20.726Z,0.42
2022-09-05T01:20:21.292Z,0.42
2022-09-05T01:21:13.628Z,0.59
2022-09-05T01:22:05.429Z,0.59
2022-09-05T01:23:14.766Z,0.51
2022-09-05T01:24:10.355Z,0.51
2022-09-05T01:25:13.295Z,0.53
2022-09-05T01:26:14.261Z,0.53
2022-09-05T01:27:14.255Z,0.61
2022-09-05T01:29:19.548Z,0.61
2022-09-05T01:29:20.758Z,0.9
2022-09-05T01:30:06.752Z,0.82
2022-09-05T01:31:14.896Z,0.43
2022-09-05T01:32:07.546Z,0.43
2022-09-05T01:33:15.759Z,0.65
2022-09-05T01:34:13.445Z,0.66
2022-09-05T01:35:07.980Z,0.66
2022-09-05T01:36:14.544Z,0.51
2022-09-05T01:37:33.832Z,0.51
2022-09-05T01:38:13.283Z,0.49
2022-09-05T01:40:16.346Z,0.29
2022-09-05T01:40:17.427Z,0.41
2022-09-05T01:41:21.495Z,0.41
2022-09-05T01:42:13.051Z,0.92
2022-09-05T01:43:16.526Z,0.72
2022-09-05T01:44:09.871Z,0.72
2022-09-05T01:45:15.408Z,1.05
2022-09-05T01:46:13.778Z,1.05
2022-09-05T01:47:31.656Z,0.65
2022-09-05T01:48:06.358Z,0.8
2022-09-05T01:49:10.460Z,0.42
2022-09-05T01:50:08.283Z,0.45
2022-09-05T01:51:31.579Z,0.5
2022-09-05T01:52:12.196Z,0.5
2022-09-05T01:53:13.584Z,0.86
2022-09-05T01:54:28.959Z,0.89
2022-09-05T01:55:08.956Z,0.89
2022-09-05T01:56:14.351Z,0.61
2022-09-05T01:57:11.051Z,0.61
2022-09-05T01:58:14.145Z,0.67
2022-09-05T01:59:12.931Z,0.73
2022-09-05T02:00:15.704Z,0.45
2022-09-05T02:01:34.011Z,1.16
2022-09-05T02:02:07.736Z,1.16
2022-09-05T02:03:13.822Z,0.59
2022-09-05T02:04:15.522Z,0.59
2022-09-05T02:05:14.871Z,0.81
2022-09-05T02:06:13.298Z,0.81
2022-09-05T02:07:32.433Z,0.75
2022-09-05T02:08:09.950Z,0.75
2022-09-05T02:09:12.219Z,0.79
2022-09-05T02:10:10.574Z,0.79
2022-09-05T02:11:13.416Z,1.09
2022-09-05T02:12:07.980Z,1.09
2022-09-05T02:13:15.482Z,1.1
2022-09-05T02:14:33.906Z,1.1
2022-09-05T02:15:08.084Z,0.96
2022-09-05T02:16:13.061Z,0.82
2022-09-05T02:17:06.840Z,0.82
2022-09-05T02:18:13.426Z,1.02
2022-09-05T02:19:14.521Z,1.16
2022-09-05T02:20:07.999Z,1.16
2022-09-05T02:21:17.750Z,0.48
2022-09-05T02:22:05.032Z,0.48
2022-09-05T02:23:43.465Z,0.62
2022-09-05T02:24:13.033Z,0.55
2022-09-05T02:26:03.522Z,0.68
2022-09-05T02:26:08.214Z,0.5
2022-09-05T02:28:06.675Z,0.61
2022-09-05T02:28:13.007Z,0.75
2022-09-05T02:29:11.963Z,0.58
2022-09-05T02:30:13.766Z,0.58
2022-09-05T02:31:22.873Z,0.92
2022-09-05T02:32:14.925Z,0.92
2022-09-05T02:33:14.206Z,0.99
2022-09-05T02:34:14.409Z,0.88
2022-09-05T02:35:06.070Z,0.88
2022-09-05T02:36:16.487Z,0.91
2022-09-05T02:37:14.783Z,0.91
2022-09-05T02:45:25.214Z,0.57
2022-09-05T02:45:25.303Z,0.89
2022-09-05T02:45:26.480Z,0.88
2022-09-05T02:46:05.543Z,0.7
2022-09-05T02:47:16.127Z,0.81
2022-09-05T02:48:18.355Z,0.81
2022-09-05T02:51:47.444Z,0.99
2022-09-05T02:58:04.307Z,1.05
2022-09-05T02:58:04.320Z,0.92
2022-09-05T02:58:05.082Z,0.92
2022-09-05T02:58:05.102Z,0.78
2022-09-05T02:58:05.110Z,0.78
2022-09-05T02:58:05.136Z,1.21
2022-09-05T02:58:06.871Z,1.21
2022-09-05T02:59:12.766Z,0.88
2022-09-05T03:00:12.742Z,0.88
2022-09-05T03:01:11.864Z,0.92
2022-09-05T03:02:28.473Z,0.79
2022-09-05T03:03:08.315Z,0.79
2022-09-05T03:04:14.762Z,0.75
2022-09-05T03:05:11.785Z,0.75
2022-09-05T03:06:14.272Z,0.7
2022-09-05T03:07:04.622Z,0.7
2022-09-05T03:08:16.421Z,0.7
2022-09-05T03:09:19.234Z,0.7
2022-09-05T03:10:08.254Z,0.54
2022-09-05T03:11:10.555Z,0.74
2022-09-05T03:12:31.794Z,0.74
2022-09-05T03:13:14.900Z,1.02
2022-09-05T03:14:06.313Z,1.02
2022-09-05T03:15:24.323Z,0.94
2022-09-05T03:16:07.353Z,0.94
2022-09-05T03:17:16.577Z,0.85
2022-09-05T03:18:22.721Z,0.85
2022-09-05T03:19:14.835Z,1.01
2022-09-05T03:20:05.754Z,0.88
2022-09-05T03:21:12.589Z,0.89
2022-09-05T03:22:13.488Z,0.89
2022-09-05T03:23:08.444Z,0.74
2022-09-05T03:24:13.287Z,0.73
2022-09-05T03:25:09.436Z,0.73
2022-09-05T03:26:12.472Z,0.84
2022-09-05T03:27:10.941Z,0.56
2022-09-05T03:28:15.400Z,1.25
2022-09-05T03:29:06.555Z,1.25
2022-09-05T03:30:08.049Z,0.64
2022-09-05T03:31:24.220Z,1.14
2022-09-05T03:32:08.448Z,1.14
2022-09-05T03:33:13.599Z,1.05
2022-09-05T03:34:11.445Z,1.05
2022-09-05T03:35:15.023Z,1.34
2022-09-05T03:36:10.336Z,0.95
2022-09-05T03:37:15.950Z,0.52
2022-09-05T03:38:04.074Z,1.22
2022-09-05T03:39:12.555Z,1.32
2022-09-05T03:40:18.052Z,1.32
2022-09-05T03:41:10.022Z,0.96
2022-09-05T03:42:17.109Z,0.96
2022-09-05T03:43:09.205Z,1.11
2022-09-05T03:44:09.287Z,1.21
2022-09-05T03:45:13.399Z,1.21
2022-09-05T03:46:13.522Z,1.21
2022-09-05T03:47:12.116Z,1.32
2022-09-05T03:48:30.253Z,1.32
2022-09-05T03:51:14.036Z,1.32
2022-09-05T03:57:32.051Z,0.75
2022-09-05T03:57:36.716Z,1.18
2022-09-05T03:57:36.726Z,1.18
2022-09-05T03:58:18.907Z,0.91
2022-09-05T04:00:12.084Z,0.72
2022-09-05T04:06:05.239Z,0.96
2022-09-05T04:08:29.411Z,1.16
2022-09-05T04:08:29.547Z,0.96
2022-09-05T04:08:36.875Z,0.76
2022-09-05T04:08:39.086Z,0.96
2022-09-05T04:08:39.090Z,0.96
2022-09-05T04:08:39.092Z,0.83
2022-09-05T04:10:07.444Z,1.02
2022-09-05T04:11:13.462Z,0.72
2022-09-05T04:12:13.713Z,0.98
2022-09-05T04:13:07.023Z,0.98
2022-09-05T04:14:14.728Z,1.08
2022-09-05T04:15:09.447Z,0.91
2022-09-05T04:16:14.987Z,0.96
2022-09-05T04:17:10.756Z,0.79
2022-09-05T04:18:17.894Z,1.14
2022-09-05T04:19:05.354Z,1.14
2022-09-05T04:20:15.409Z,0.78
2022-09-05T04:21:08.394Z,0.78
2022-09-05T04:22:16.126Z,1.39
2022-09-05T04:23:05.836Z,1.39
2022-09-05T04:24:14.144Z,1.12
2022-09-05T04:25:18.725Z,0.98
2022-09-05T04:26:13.904Z,0.98
2022-09-05T04:27:10.730Z,0.92
2022-09-05T04:28:11.031Z,0.92
2022-09-05T04:29:15.721Z,0.73
2022-09-05T04:30:40.658Z,0.73
2022-09-05T04:31:14.762Z,1.08
2022-09-05T04:32:21.544Z,1.26
2022-09-05T04:33:13.743Z,0.86
2022-09-05T04:34:11.053Z,1.13
2022-09-05T04:35:17.875Z,1.13
2022-09-05T04:36:19.840Z,1.13
2022-09-05T04:37:13.914Z,0.95
2022-09-05T04:38:08.129Z,0.95
2022-09-05T04:39:11.404Z,0.94
2022-09-05T04:40:11.001Z,0.94
2022-09-05T04:41:11.064Z,0.96
2022-09-05T04:42:12.065Z,0.96
2022-09-05T04:43:13.141Z,1.36
2022-09-05T04:44:10.988Z,1.36
2022-09-05T04:45:11.778Z,1.1
2022-09-05T04:46:14.743Z,1.1
2022-09-05T04:47:15.720Z,0.61
2022-09-05T04:48:14.956Z,0.61
2022-09-05T04:49:08.853Z,0.89
2022-09-05T04:50:18.690Z,0.88
2022-09-05T04:51:10.178Z,0.88
2022-09-05T04:52:31.215Z,0.77
2022-09-05T04:53:08.050Z,0.77
2022-09-05T04:54:12.400Z,1.48
2022-09-05T04:55:12.594Z,1.48
2022-09-05T04:56:13.908Z,0.93
2022-09-05T04:57:16.178Z,0.93
2022-09-05T04:58:14.593Z,0.78
2022-09-05T05:06:28.916Z,0.58
2022-09-05T05:06:34.924Z,1.01
2022-09-05T05:06:34.998Z,1.48
2022-09-05T05:06:35.053Z,0.83
2022-09-05T05:06:42.161Z,1.01
2022-09-05T05:08:11.814Z,0.87
2022-09-05T05:09:14.173Z,0.87
2022-09-05T05:18:05.781Z,0.91
2022-09-05T05:18:35.376Z,1.38
2022-09-05T05:18:35.607Z,1.14
2022-09-05T05:18:38.916Z,1.09
2022-09-05T05:18:39.032Z,0.97
2022-09-05T05:18:46.866Z,0.96
2022-09-05T05:20:44.413Z,0.96
2022-09-05T05:21:10.250Z,1.78
2022-09-05T05:22:10.582Z,1.78
2022-09-05T05:23:13.527Z,1.27
2022-09-05T05:24:11.210Z,1.27
2022-09-05T05:25:11.355Z,0.95
2022-09-05T05:26:10.070Z,1.45
2022-09-05T05:27:13.458Z,1.62
2022-09-05T05:28:34.622Z,1.11
2022-09-05T05:29:14.392Z,1.11
2022-09-05T05:30:10.628Z,1.99
2022-09-05T05:31:11.630Z,1.24
2022-09-05T05:32:17.854Z,1.24
2022-09-05T05:33:11.339Z,1
2022-09-05T05:34:25.953Z,1.06
2022-09-05T05:35:12.760Z,1.05
2022-09-05T05:36:13.653Z,1.13
2022-09-05T05:37:13.844Z,1.21
2022-09-05T05:38:11.643Z,0.96
2022-09-05T05:39:14.807Z,1.22
2022-09-05T05:40:08.458Z,1.22
2022-09-05T05:41:12.998Z,1.12
2022-09-05T05:42:23.244Z,1.13
2022-09-05T05:43:14.692Z,1.4
2022-09-05T05:44:13.157Z,1.4
2022-09-05T05:45:14.262Z,1.11
2022-09-05T05:46:11.428Z,1.11
2022-09-05T05:47:08.819Z,1.01
2022-09-05T05:48:10.834Z,1.35
2022-09-05T05:49:13.680Z,1.59
2022-09-05T05:50:13.566Z,1.59
2022-09-05T05:51:13.132Z,1.38
2022-09-05T05:52:13.643Z,1.38
2022-09-05T05:53:11.395Z,1.25
2022-09-05T05:54:11.279Z,0.69
2022-09-05T05:55:53.451Z,1.3
2022-09-05T05:56:13.285Z,1.3
2022-09-05T05:57:17.267Z,1.02
2022-09-05T05:58:11.343Z,1.65
2022-09-05T05:59:11.873Z,1.49
2022-09-05T06:00:17.002Z,1.11
2022-09-05T06:01:37.574Z,1.47
2022-09-05T06:02:11.788Z,1.09
2022-09-05T06:03:28.183Z,1.3
2022-09-05T06:04:14.391Z,1.14
2022-09-05T06:05:14.393Z,1.15
2022-09-05T06:06:12.150Z,1.15
2022-09-05T06:07:12.493Z,1.69
2022-09-05T06:15:08.468Z,1.84
2022-09-05T06:15:09.957Z,0.97
2022-09-05T06:15:10.019Z,1.84
2022-09-05T06:15:10.059Z,1.84
2022-09-05T06:15:10.955Z,1.31
2022-09-05T06:15:11.419Z,1.31
2022-09-05T06:15:11.472Z,0.97
2022-09-05T06:16:10.037Z,0.95
2022-09-05T06:17:14.444Z,1.01
2022-09-05T06:18:13.338Z,1.18
2022-09-05T06:19:05.708Z,1.18
2022-09-05T06:22:13.053Z,1.86
2022-09-05T06:22:14.905Z,1.86
2022-09-05T06:22:20.666Z,1.16
2022-09-05T06:23:40.161Z,1.25
2022-09-05T06:24:14.360Z,1.25
2022-09-05T06:25:19.406Z,0.95
2022-09-05T06:26:12.607Z,1.17
2022-09-05T06:27:04.983Z,1.17
2022-09-05T06:28:21.343Z,1.65
2022-09-05T06:29:11.388Z,1.38
2022-09-05T06:30:11.686Z,1.79
2022-09-05T06:31:33.314Z,1.04
2022-09-05T06:32:08.280Z,1.04
2022-09-05T06:33:09.312Z,1.89
2022-09-05T06:34:35.569Z,1.42
2022-09-05T06:35:10.872Z,1.23
2022-09-05T06:36:11.722Z,1.23
2022-09-05T06:37:10.464Z,1.35
2022-09-05T06:38:14.061Z,1.35
2022-09-05T06:39:13.143Z,1.82
2022-09-05T06:40:06.334Z,1.82
2022-09-05T06:41:14.822Z,1.55
2022-09-05T06:42:43.146Z,1.55
2022-09-05T06:43:10.089Z,1.46
2022-09-05T06:44:11.802Z,1.46
2022-09-05T06:45:30.538Z,1.54
2022-09-05T06:46:21.173Z,1.61
2022-09-05T06:47:35.675Z,1.35
2022-09-05T06:48:08.089Z,1.35
2022-09-05T06:49:37.539Z,1.4
2022-09-05T06:50:28.877Z,1.4
2022-09-05T06:51:11.993Z,1.53
2022-09-05T06:52:31.021Z,1.53
2022-09-05T06:53:22.982Z,1.16
2022-09-05T06:54:13.055Z,1.5
2022-09-05T06:55:12.495Z,1.5
2022-09-05T06:56:26.150Z,1.6
2022-09-05T06:57:04.810Z,1.6
2022-09-05T06:58:14.052Z,1.96
2022-09-05T06:59:12.100Z,1.96
2022-09-05T07:00:24.448Z,1.95
2022-09-05T07:01:10.726Z,1.87
2022-09-05T07:02:12.072Z,1.87
2022-09-05T07:03:15.623Z,2.02
2022-09-05T07:05:24.227Z,2.02
2022-09-05T07:05:42.676Z,1.76
2022-09-05T07:06:09.860Z,1.09
2022-09-05T07:07:12.901Z,1.71
2022-09-05T07:08:37.133Z,1.71
2022-09-05T07:09:11.588Z,1.47
2022-09-05T07:10:39.321Z,1.74
2022-09-05T07:11:17.853Z,1.46
2022-09-05T07:12:11.098Z,1.46
2022-09-05T07:13:09.951Z,1.48
2022-09-05T07:14:16.295Z,1.61
2022-09-05T07:15:11.182Z,1.61
2022-09-05T07:16:12.587Z,1.64
2022-09-05T07:17:05.217Z,1.64
2022-09-05T07:18:14.367Z,1.94
2022-09-05T07:19:07.452Z,1.94
2022-09-05T07:20:17.561Z,1.76
2022-09-05T07:21:26.168Z,2.01
2022-09-05T07:22:49.347Z,1.22
2022-09-05T07:24:10.370Z,1.22
2022-09-05T07:24:12.811Z,1.22
2022-09-05T07:26:20.499Z,1.25
2022-09-05T07:27:05.003Z,1.25
2022-09-05T07:28:32.198Z,1.87
2022-09-05T07:29:12.029Z,1.36
2022-09-05T07:30:12.766Z,0.92
2022-09-05T07:31:09.171Z,1.97
2022-09-05T07:32:12.027Z,1.21
2022-09-05T07:33:11.467Z,1.21
2022-09-05T07:34:23.676Z,0.95
2022-09-05T07:35:11.060Z,1.02
2022-09-05T07:36:13.081Z,1.95
2022-09-05T07:37:18.465Z,1.45
2022-09-05T07:38:05.232Z,1.45
2022-09-05T07:39:30.518Z,0.99
2022-09-05T07:40:27.373Z,1.54
2022-09-05T07:41:11.255Z,1.2
2022-09-05T07:42:10.509Z,1.71
2022-09-05T07:43:11.513Z,1.71
2022-09-05T07:44:14.732Z,1.22
2022-09-05T07:45:07.580Z,1.22
2022-09-05T07:46:12.963Z,1.91
2022-09-05T07:47:11.820Z,1.91
2022-09-05T07:48:13.635Z,1.23
2022-09-05T07:49:12.686Z,0.97
2022-09-05T07:56:57.257Z,0.97
2022-09-05T07:57:20.465Z,1.56
2022-09-05T07:57:25.185Z,1.81
2022-09-05T07:57:25.200Z,1.02
2022-09-05T07:57:25.273Z,1.56
2022-09-05T07:57:29.856Z,2.22
2022-09-05T07:57:29.878Z,2.12
2022-09-05T07:59:11.030Z,1.53
2022-09-05T08:00:29.327Z,1.09
2022-09-05T08:01:04.882Z,1.09
2022-09-05T08:02:14.638Z,1.42
2022-09-05T08:03:12.635Z,1.42
2022-09-05T08:04:10.406Z,2.41
2022-09-05T08:05:13.400Z,1.68
2022-09-05T08:06:11.178Z,1.23
2022-09-05T08:07:51.720Z,1.23
2022-09-05T08:10:10.743Z,1.36
2022-09-05T08:10:15.485Z,1.33
2022-09-05T08:11:27.846Z,1.33
2022-09-05T08:12:11.825Z,1.41
2022-09-05T08:13:27.259Z,1.58
2022-09-05T08:14:46.615Z,1.58
2022-09-05T08:15:18.650Z,1.69
2022-09-05T08:16:14.854Z,1.69
2022-09-05T08:17:14.319Z,1.52
2022-09-05T08:18:12.757Z,1.52
2022-09-05T08:19:12.947Z,2.31
2022-09-05T08:20:10.612Z,2.31
2022-09-05T08:21:13.789Z,1.39
2022-09-05T08:22:10.971Z,1.55
2022-09-05T08:23:11.216Z,1.66
2022-09-05T08:24:15.026Z,1.66
2022-09-05T08:25:19.087Z,1.05
2022-09-05T08:26:07.446Z,1.2
2022-09-05T08:27:18.713Z,1.63
2022-09-05T08:28:09.616Z,1.09
2022-09-05T08:29:16.773Z,1.79
2022-09-05T08:30:28.790Z,1.79
2022-09-05T08:31:04.275Z,0.87
2022-09-05T08:32:12.645Z,0.65
2022-09-05T08:33:13.709Z,0.65
2022-09-05T08:34:12.683Z,1.01
2022-09-05T08:35:11.955Z,1.01
2022-09-05T08:36:09.948Z,1.12
2022-09-05T08:37:04.736Z,1.12
2022-09-05T08:38:13.902Z,1.12
2022-09-05T08:39:13.696Z,1.12
2022-09-05T08:40:13.718Z,1.12
2022-09-05T08:41:08.232Z,1.32
2022-09-05T08:42:15.988Z,1.22
2022-09-05T08:46:48.040Z,1.22
2022-09-05T08:46:49.520Z,1.51
2022-09-05T08:46:49.968Z,1.04
2022-09-05T08:48:12.946Z,1.25
2022-09-05T08:49:18.069Z,1.11
2022-09-05T08:50:14.158Z,1.55
2022-09-05T08:51:11.966Z,1.55
2022-09-05T08:52:15.552Z,1.04
2022-09-05T08:53:47.729Z,1.04
2022-09-05T08:55:12.852Z,1.4
2022-09-05T08:56:11.054Z,1.34
2022-09-05T08:57:12.963Z,1.34
2022-09-05T08:58:06.667Z,0.76
2022-09-05T08:59:32.560Z,1.06
2022-09-05T09:00:27.557Z,0.94
2022-09-05T09:01:13.949Z,0.95
2022-09-05T09:02:49.242Z,0.95
2022-09-05T09:03:25.630Z,1.13
2022-09-05T09:04:06.382Z,1.13
2022-09-05T09:05:16.433Z,0.9
2022-09-05T09:06:17.145Z,0.75
2022-09-05T09:07:52.814Z,0.89
2022-09-05T09:09:10.337Z,1.06
2022-09-05T09:10:11.278Z,0.88
2022-09-05T09:11:13.449Z,0.65
2022-09-05T09:12:11.552Z,0.8
2022-09-05T09:13:14.422Z,2.21
2022-09-05T09:14:08.322Z,2.21
2022-09-05T09:15:10.086Z,0.55
2022-09-05T09:16:06.449Z,0.58
2022-09-05T09:17:12.244Z,0.83
2022-09-05T09:18:12.405Z,1.34
2022-09-05T09:19:10.128Z,1.34
2022-09-05T09:20:11.618Z,0.67
2022-09-05T09:21:10.384Z,0.67
2022-09-05T09:22:10.219Z,0.56
2022-09-05T09:23:34.734Z,0.56
2022-09-05T09:24:06.947Z,0.85
2022-09-05T09:25:20.147Z,1.06
2022-09-05T09:26:15.513Z,1.29
2022-09-05T09:27:12.871Z,0.99
2022-09-05T09:28:51.901Z,0.54
2022-09-05T09:29:16.083Z,0.54
2022-09-05T09:30:10.991Z,0.66
2022-09-05T09:31:10.409Z,1.01
2022-09-05T09:32:11.782Z,0.92
2022-09-05T09:33:09.354Z,0.92
2022-09-05T09:34:17.104Z,0.84
2022-09-05T09:35:07.709Z,0.84
2022-09-05T09:36:10.112Z,0.56
2022-09-05T09:37:11.700Z,0.62
2022-09-05T09:38:10.297Z,0.61
2022-09-05T09:39:40.717Z,0.93
2022-09-05T09:40:10.768Z,0.93
2022-09-05T09:41:06.309Z,0.54
2022-09-05T09:42:34.904Z,0.44
2022-09-05T09:43:09.496Z,0.44
2022-09-05T09:44:13.565Z,0.52
2022-09-05T09:45:30.458Z,0.52
2022-09-05T09:46:16.199Z,0.95
2022-09-05T09:47:12.530Z,0.95
2022-09-05T09:48:11.344Z,0.66
2022-09-05T09:49:25.564Z,0.46
2022-09-05T09:50:10.912Z,0.46
2022-09-05T09:51:12.247Z,1.01
2022-09-05T09:52:23.289Z,0.36
2022-09-05T09:53:12.884Z,0.36
2022-09-05T09:54:14.018Z,1.01
2022-09-05T09:55:23.290Z,0.49
2022-09-05T09:56:13.139Z,0.65
2022-09-05T09:57:14.703Z,0.92
2022-09-05T09:58:05.327Z,0.92
2022-09-05T09:59:15.357Z,0.84
2022-09-05T10:00:12.033Z,0.84
2022-09-05T10:01:37.644Z,0.49
2022-09-05T10:08:36.675Z,0.49
2022-09-05T10:10:36.987Z,0.49
2022-09-05T10:11:33.796Z,0.45
2022-09-05T10:11:33.817Z,0.68
2022-09-05T10:11:33.842Z,0.48
2022-09-05T10:13:16.147Z,0.56
2022-09-05T10:14:51.559Z,0.56
2022-09-05T10:15:33.525Z,0.49
2022-09-05T10:16:13.758Z,0.52
2022-09-05T10:17:15.419Z,0.58
2022-09-05T10:18:10.370Z,0.58
2022-09-05T10:19:11.910Z,0.65
2022-09-05T10:20:14.438Z,0.58
2022-09-05T10:21:19.326Z,0.58
2022-09-05T10:22:42.679Z,0.58
2022-09-05T10:23:11.542Z,0.72
2022-09-05T10:24:06.909Z,0.81
2022-09-05T10:25:21.219Z,0.34
2022-09-05T10:26:11.844Z,0.34
2022-09-05T10:27:10.945Z,0.45
2022-09-05T10:28:14.519Z,0.45
2022-09-05T10:29:39.851Z,0.55
2022-09-05T10:30:13.847Z,0.61
2022-09-05T10:35:20.732Z,0.91
2022-09-05T10:35:20.768Z,0.72
2022-09-05T10:35:22.068Z,0.61
2022-09-05T10:35:22.097Z,0.72
2022-09-05T10:35:24.374Z,0.66
2022-09-05T10:36:17.389Z,0.75
2022-09-05T10:37:18.941Z,0.42
2022-09-05T10:38:12.554Z,0.42
2022-09-05T10:39:15.850Z,0.74
2022-09-05T10:40:12.543Z,0.51
2022-09-05T10:41:23.656Z,0.51
2022-09-05T10:42:14.700Z,0.77
2022-09-05T10:43:12.449Z,1.56
2022-09-05T10:44:14.340Z,0.45
2022-09-05T10:45:15.912Z,0.46
2022-09-05T10:46:24.035Z,0.78
2022-09-05T10:47:12.575Z,0.52
2022-09-05T10:48:15.561Z,0.4
2022-09-05T10:49:05.880Z,0.51
2022-09-05T10:50:15.249Z,0.72
2022-09-05T10:51:27.671Z,0.72
2022-09-05T10:52:21.222Z,0.53
2022-09-05T10:53:23.486Z,0.56
2022-09-05T10:54:04.839Z,0.56
2022-09-05T10:55:18.249Z,0.46
2022-09-05T10:56:14.851Z,0.74
2022-09-05T10:57:14.350Z,0.41
2022-09-05T10:58:30.472Z,0.34
2022-09-05T11:02:33.350Z,0.65
2022-09-05T11:02:33.368Z,0.34
2022-09-05T11:02:35.174Z,0.46
2022-09-05T11:02:38.499Z,0.54
2022-09-05T11:03:05.246Z,0.65
2022-09-05T11:04:13.276Z,0.51
2022-09-05T11:05:12.577Z,0.28
2022-09-05T11:06:11.693Z,0.28
2022-09-05T11:07:13.974Z,0.47
2022-09-05T11:08:10.887Z,0.45
2022-09-05T11:09:18.749Z,0.34
2022-09-05T11:10:08.550Z,0.34
2022-09-05T11:11:28.572Z,0.26
2022-09-05T11:12:12.871Z,0.26
2022-09-05T11:13:12.320Z,0.52
2022-09-05T11:14:26.232Z,0.89
2022-09-05T11:15:11.177Z,0.89
2022-09-05T11:16:15.697Z,0.35
2022-09-05T11:17:12.334Z,0.54
2022-09-05T11:18:12.315Z,0.54
2022-09-05T11:19:12.912Z,0.42
2022-09-05T11:20:34.646Z,0.35
2022-09-05T11:21:14.284Z,0.37
2022-09-05T11:22:25.796Z,0.71
2022-09-05T11:23:05.429Z,0.71
2022-09-05T11:24:17.113Z,0.59
2022-09-05T11:25:11.795Z,0.59
2022-09-05T11:26:12.309Z,0.51
2022-09-05T11:27:26.800Z,0.51
2022-09-05T11:28:14.125Z,0.68
2022-09-05T11:29:13.974Z,0.39
2022-09-05T11:30:35.675Z,0.39
2022-09-05T11:31:06.358Z,0.35
2022-09-05T11:40:26.830Z,0.55
2022-09-05T11:40:26.980Z,0.33
2022-09-05T11:40:27.146Z,0.42
2022-09-05T11:40:27.167Z,0.52
2022-09-05T11:40:27.227Z,0.52
2022-09-05T11:40:27.307Z,0.42
2022-09-05T11:40:27.339Z,0.33
2022-09-05T11:40:36.497Z,0.39
2022-09-05T11:41:21.844Z,0.5
2022-09-05T11:42:14.851Z,0.47
2022-09-05T11:43:04.665Z,0.47
2022-09-05T11:44:28.065Z,0.41
2022-09-05T11:45:10.130Z,0.41
2022-09-05T11:46:14.926Z,0.92
2022-09-05T11:47:33.300Z,0.39
2022-09-05T11:48:13.413Z,0.32
2022-09-05T11:49:11.794Z,0.67
2022-09-05T11:50:14.131Z,0.62
2022-09-05T11:51:10.708Z,0.62
2022-09-05T11:52:13.467Z,0.41
2022-09-05T11:53:13.001Z,0.43
2022-09-05T11:54:11.852Z,0.43
2022-09-05T11:55:23.718Z,0.62
2022-09-05T11:56:11.592Z,0.55
2022-09-05T11:57:34.921Z,0.55
2022-09-05T11:58:47.323Z,0.34
2022-09-05T11:59:15.964Z,0.34
2022-09-05T12:00:34.626Z,0.38
2022-09-05T12:02:25.922Z,0.51
2022-09-05T12:03:11.321Z,0.88
2022-09-05T12:04:15.304Z,0.61
2022-09-05T12:05:59.118Z,0.54
2022-09-05T12:06:13.577Z,0.44
2022-09-05T12:07:32.413Z,0.44
2022-09-05T12:08:14.651Z,0.51
2022-09-05T12:09:11.119Z,0.51
2022-09-05T12:10:47.519Z,0.42
2022-09-05T12:11:15.926Z,0.92
2022-09-05T12:12:43.414Z,0.29
2022-09-05T12:13:12.202Z,0.48
2022-09-05T12:14:27.383Z,0.68
2022-09-05T12:15:14.204Z,0.55
2022-09-05T12:16:16.660Z,0.36
2022-09-05T12:18:21.546Z,0.37
2022-09-05T12:19:22.752Z,0.46
2022-09-05T12:20:21.984Z,0.4
2022-09-05T12:21:17.514Z,0.4
2022-09-05T12:22:23.769Z,0.33
2022-09-05T12:25:25.819Z,0.35
2022-09-05T12:27:45.395Z,0.48
2022-09-05T12:27:45.854Z,0.46
2022-09-05T12:29:35.150Z,0.35
2022-09-05T12:29:35.184Z,0.35
2022-09-05T12:36:03.017Z,0.51
2022-09-05T12:38:45.043Z,0.49
2022-09-05T12:38:56.944Z,0.58
2022-09-05T12:40:53.723Z,0.55
2022-09-05T12:41:14.808Z,0.26
2022-09-05T12:41:48.592Z,0.79
2022-09-05T12:41:48.642Z,0.51
2022-09-05T12:41:48.663Z,0.44
2022-09-05T12:41:48.680Z,0.26
2022-09-05T12:41:48.688Z,0.79
2022-09-05T12:42:11.024Z,0.39
2022-09-05T12:44:44.673Z,0.65
2022-09-05T12:44:46.339Z,0.65
2022-09-05T12:45:13.358Z,0.5
2022-09-05T12:46:26.304Z,0.38
2022-09-05T12:47:22.869Z,0.36
2022-09-05T12:48:11.016Z,0.38
2022-09-05T12:49:10.116Z,0.38
2022-09-05T12:50:17.585Z,0.54
2022-09-05T12:51:18.084Z,0.79
2022-09-05T12:52:14.042Z,0.79
2022-09-05T12:53:09.612Z,0.5
2022-09-05T12:54:35.401Z,0.5
2022-09-05T12:55:10.658Z,0.5
2022-09-05T13:02:40.319Z,0.38
2022-09-05T13:03:25.203Z,0.28
2022-09-05T13:03:27.411Z,0.19
2022-09-05T13:03:27.450Z,1.54
2022-09-05T13:03:27.548Z,0.65
2022-09-05T13:04:23.883Z,0.58
2022-09-05T13:05:12.135Z,0.86
2022-09-05T13:06:26.953Z,0.86
2022-09-05T13:07:12.153Z,0.3
2022-09-05T13:08:10.580Z,0.29
2022-09-05T13:09:11.462Z,0.22
2022-09-05T13:15:05.884Z,0.46
2022-09-05T13:15:05.908Z,0.22
2022-09-05T13:15:11.219Z,0.46
2022-09-05T13:15:11.309Z,0.55
2022-09-05T13:15:18.546Z,0.69
2022-09-05T13:15:22.574Z,0.54
2022-09-05T13:16:24.976Z,0.54
2022-09-05T13:17:06.377Z,0.45
2022-09-05T13:18:10.384Z,0.4
2022-09-05T13:19:13.143Z,0.42
2022-09-05T13:20:13.659Z,0.35
2022-09-05T13:21:15.731Z,0.34
2022-09-05T13:22:12.809Z,0.36
2022-09-05T13:23:14.396Z,0.28
2022-09-05T13:24:15.496Z,0.97
2022-09-05T13:25:16.951Z,0.39
2022-09-05T13:26:05.231Z,0.39
2022-09-05T13:27:14.602Z,0.58
2022-09-05T13:28:10.921Z,0.47
2022-09-05T13:29:13.323Z,0.41
2022-09-05T13:38:27.408Z,0.38
2022-09-05T13:38:33.957Z,0.38
2022-09-05T13:38:34.042Z,0.58
2022-09-05T13:38:42.208Z,0.31
2022-09-05T13:38:42.222Z,0.41
2022-09-05T13:38:49.076Z,0.47
2022-09-05T13:39:05.802Z,0.29
2022-09-05T13:40:07.554Z,0.33
2022-09-05T13:41:29.031Z,0.33
2022-09-05T13:42:15.299Z,0.63
2022-09-05T13:43:15.520Z,0.32
2022-09-05T13:44:29.453Z,0.45
2022-09-05T13:45:18.882Z,0.42
2022-09-05T13:46:06.316Z,0.42
2022-09-05T13:47:31.448Z,0.41
2022-09-05T13:48:13.031Z,0.46
2022-09-05T13:49:34.062Z,0.5
2022-09-05T13:50:14.978Z,0.5
2022-09-05T13:51:10.784Z,0.62
2022-09-05T13:52:14.842Z,0.62
2022-09-05T13:53:15.534Z,0.4
2022-09-05T13:54:15.365Z,0.4
2022-09-05T13:55:14.544Z,0.36
2022-09-05T13:56:07.593Z,0.36
2022-09-05T13:57:14.406Z,0.51
2022-09-05T13:58:13.717Z,0.51
2022-09-05T13:59:13.356Z,0.32
2022-09-05T14:00:29.065Z,0.32
2022-09-05T14:01:11.712Z,0.64
2022-09-05T14:02:29.053Z,0.72
2022-09-05T14:03:40.100Z,0.52
2022-09-05T14:04:13.155Z,0.52
2022-09-05T14:05:20.451Z,0.64
2022-09-05T14:06:49.394Z,0.48
2022-09-05T14:07:44.282Z,0.52
2022-09-05T14:09:44.540Z,0.87
2022-09-05T14:10:11.317Z,0.36
2022-09-05T14:11:08.172Z,0.36
2022-09-05T14:12:16.283Z,0.2
2022-09-05T14:13:06.189Z,0.2